createdAt,value
2022-12-15T00:02:19.651Z,12.90
2022-12-15T00:05:05.476Z,12.20
2022-12-15T00:07:51.209Z,1.13
2022-12-15T00:10:37.024Z,15.83
2022-12-15T00:13:29.497Z,0.10
2022-12-15T00:16:15.442Z,5.73
2022-12-15T00:19:00.970Z,0.20
2022-12-15T00:21:46.853Z,0.10
2022-12-15T00:24:32.562Z,7.13
2022-12-15T00:27:17.828Z,0.10
2022-12-15T00:30:03.419Z,4.50
2022-12-15T00:32:49.068Z,3.90
2022-12-15T00:35:34.603Z,4.23
2022-12-15T00:38:32.584Z,8.60
2022-12-15T00:41:02.880Z,2.60
2022-12-15T00:43:35.332Z,2.10
2022-12-15T00:46:21.587Z,4.83
2022-12-15T00:48:48.525Z,9.17
2022-12-15T00:51:16.734Z,1.83
2022-12-15T00:54:02.855Z,11.97
2022-12-15T00:56:48.467Z,13.27
2022-12-15T00:59:35.060Z,1.33
2022-12-15T01:02:21.657Z,3.10
2022-12-15T01:05:07.412Z,10.27
2022-12-15T01:07:52.870Z,1.20
2022-12-15T01:10:38.387Z,6.83
2022-12-15T01:13:24.511Z,2.33
2022-12-15T01:16:10.146Z,2.30
2022-12-15T01:18:55.815Z,0.10
2022-12-15T01:21:25.112Z,1.33
2022-12-15T01:23:52.600Z,0.10
2022-12-15T01:26:19.984Z,0.20
2022-12-15T01:28:47.047Z,0.10
2022-12-15T01:31:14.280Z,0.20
2022-12-15T01:33:42.788Z,0.10
2022-12-15T01:36:10.671Z,0.17
2022-12-15T01:38:37.797Z,1.23
2022-12-15T01:41:07.495Z,1.27
2022-12-15T01:43:37.827Z,8.23
2022-12-15T01:46:16.068Z,1.83
2022-12-15T01:48:46.103Z,1.17
2022-12-15T01:51:15.487Z,6.10
2022-12-15T01:54:06.129Z,0.10
2022-12-15T01:56:38.088Z,6.80
2022-12-15T01:59:08.665Z,6.40
2022-12-15T02:01:35.797Z,5.70
2022-12-15T02:04:05.408Z,3.93
2022-12-15T02:06:32.730Z,0.70
2022-12-15T02:09:00.721Z,0.10
2022-12-15T02:11:57.973Z,16.83
2022-12-15T02:15:15.550Z,4.83
2022-12-15T02:17:57.115Z,6.13
2022-12-15T02:20:45.922Z,3.30
2022-12-15T02:23:40.059Z,1.70
2022-12-15T02:26:44.470Z,0.50
2022-12-15T02:29:17.337Z,0.13
2022-12-15T02:31:52.630Z,0.10
2022-12-15T02:34:37.829Z,0.10
2022-12-15T02:37:29.446Z,0.10
2022-12-15T02:39:56.300Z,0.20
2022-12-15T02:42:25.325Z,0.10
2022-12-15T02:44:55.923Z,0.10
2022-12-15T02:47:37.340Z,0.10
2022-12-15T02:50:28.441Z,0.10
2022-12-15T02:53:11.567Z,0.10
2022-12-15T02:55:53.854Z,0.13
2022-12-15T02:58:23.861Z,0.17
2022-12-15T03:00:57.965Z,0.20
2022-12-15T03:03:26.639Z,0.10
2022-12-15T03:05:55.232Z,0.13
2022-12-15T03:08:22.257Z,0.10
2022-12-15T03:10:52.349Z,0.10
2022-12-15T03:13:23.223Z,0.50
2022-12-15T03:15:50.527Z,2.07
2022-12-15T03:18:17.350Z,3.97
2022-12-15T03:20:44.213Z,2.77
2022-12-15T03:23:11.015Z,0.10
2022-12-15T03:25:37.920Z,0.10
2022-12-15T03:28:04.928Z,0.67
2022-12-15T03:30:31.952Z,0.10
2022-12-15T03:32:58.747Z,0.10
2022-12-15T03:35:25.804Z,0.20
2022-12-15T03:37:52.670Z,0.10
2022-12-15T03:40:19.559Z,13.60
2022-12-15T03:42:49.060Z,2.40
2022-12-15T03:45:23.607Z,0.30
2022-12-15T03:47:51.637Z,0.40
2022-12-15T03:50:22.181Z,0.30
2022-12-15T03:52:57.598Z,1.17
2022-12-15T03:55:25.098Z,0.47
2022-12-15T03:57:52.541Z,7.60
2022-12-15T04:00:20.917Z,0.50
2022-12-15T04:02:50.101Z,0.70
2022-12-15T04:05:20.916Z,0.60
2022-12-15T04:07:48.149Z,0.40
2022-12-15T04:10:16.097Z,0.40
2022-12-15T04:12:42.961Z,0.60
2022-12-15T04:15:10.956Z,1.50
2022-12-15T04:17:38.195Z,13.33
2022-12-15T04:20:09.707Z,0.10
2022-12-15T04:22:38.903Z,0.10
2022-12-15T04:25:26.862Z,5.23
2022-12-15T04:28:12.826Z,0.40
2022-12-15T04:31:03.525Z,0.10
2022-12-15T04:33:49.569Z,0.10
2022-12-15T04:36:35.910Z,0.13
2022-12-15T04:39:23.501Z,0.50
2022-12-15T04:42:10.138Z,2.60
2022-12-15T04:44:55.812Z,0.10
2022-12-15T04:47:41.381Z,4.00
2022-12-15T04:50:26.926Z,0.13
2022-12-15T04:53:12.637Z,0.20
2022-12-15T04:55:58.301Z,0.10
2022-12-15T04:58:44.044Z,0.20
2022-12-15T05:01:29.685Z,0.20
2022-12-15T05:04:15.303Z,0.30
2022-12-15T05:07:00.808Z,0.50
2022-12-15T05:09:46.149Z,0.17
2022-12-15T05:12:31.850Z,0.20
2022-12-15T05:15:17.555Z,0.20
2022-12-15T05:18:03.207Z,4.23
2022-12-15T05:20:50.218Z,5.50
2022-12-15T05:23:35.781Z,5.60
2022-12-15T05:26:21.518Z,5.50
2022-12-15T05:29:07.044Z,4.17
2022-12-15T05:31:52.349Z,12.63
2022-12-15T05:34:23.920Z,0.97
2022-12-15T05:36:51.075Z,13.90
2022-12-15T05:39:18.122Z,0.30
2022-12-15T05:41:45.301Z,0.20
2022-12-15T05:44:12.223Z,0.20
2022-12-15T05:46:39.698Z,0.20
2022-12-15T05:49:08.209Z,14.27
2022-12-15T05:51:38.756Z,14.10
2022-12-15T05:54:06.274Z,14.20
2022-12-15T05:56:33.376Z,14.20
2022-12-15T05:59:00.259Z,14.50
2022-12-15T06:01:28.430Z,13.97
2022-12-15T06:03:55.332Z,14.10
2022-12-15T06:06:22.334Z,0.60
2022-12-15T06:08:50.235Z,3.30
2022-12-15T06:11:18.928Z,14.27
2022-12-15T06:13:46.725Z,14.43
2022-12-15T06:16:22.123Z,14.50
2022-12-15T06:18:52.715Z,14.30
2022-12-15T06:21:26.036Z,2.50
2022-12-15T06:23:53.646Z,13.83
2022-12-15T06:26:25.582Z,14.37
2022-12-15T06:28:56.601Z,14.10
2022-12-15T06:31:25.678Z,14.10
2022-12-15T06:33:59.204Z,13.90
2022-12-15T06:36:28.791Z,14.00
2022-12-15T06:39:00.565Z,13.97
2022-12-15T06:41:29.836Z,13.73
2022-12-15T06:43:57.487Z,14.07
2022-12-15T06:46:26.210Z,14.27
2022-12-15T06:48:53.331Z,13.57
2022-12-15T06:51:20.654Z,13.57
2022-12-15T06:53:52.650Z,13.60
2022-12-15T06:56:38.857Z,14.57
2022-12-15T06:59:07.503Z,14.37
2022-12-15T07:01:35.045Z,14.30
2022-12-15T07:04:03.147Z,14.43
2022-12-15T07:06:36.584Z,13.87
2022-12-15T07:09:07.341Z,14.20
2022-12-15T07:11:34.322Z,14.07
2022-12-15T07:14:01.189Z,13.87
2022-12-15T07:16:28.149Z,14.20
2022-12-15T07:18:55.113Z,14.20
2022-12-15T07:21:21.936Z,13.90
2022-12-15T07:23:57.537Z,14.27
2022-12-15T07:26:25.431Z,14.33
2022-12-15T07:28:53.545Z,14.53
2022-12-15T07:31:21.481Z,13.30
2022-12-15T07:33:48.614Z,14.00
2022-12-15T07:36:15.972Z,13.93
2022-12-15T07:38:50.035Z,14.10
2022-12-15T07:41:18.887Z,13.60
2022-12-15T07:43:47.129Z,13.60
2022-12-15T07:46:14.402Z,13.23
2022-12-15T07:48:41.825Z,13.40
2022-12-15T07:51:17.156Z,13.20
2022-12-15T07:53:50.168Z,13.63
2022-12-15T07:56:17.694Z,13.17
2022-12-15T07:58:44.637Z,13.70
2022-12-15T08:01:13.465Z,13.53
2022-12-15T08:03:41.312Z,13.50
2022-12-15T08:06:11.195Z,13.63
2022-12-15T08:08:38.705Z,13.80
2022-12-15T08:11:06.881Z,13.30
2022-12-15T08:16:24.333Z,13.57
2022-12-15T08:18:51.217Z,13.60
2022-12-15T08:21:18.199Z,14.10
2022-12-15T08:23:45.335Z,13.50
2022-12-15T08:26:14.785Z,13.27
2022-12-15T08:28:43.474Z,13.40
2022-12-15T08:31:14.294Z,13.97
2022-12-15T08:33:41.305Z,13.77
2022-12-15T08:36:10.405Z,14.00
2022-12-15T08:38:39.436Z,13.50
2022-12-15T08:41:32.097Z,13.60
2022-12-15T08:44:00.658Z,13.60
2022-12-15T08:46:33.866Z,13.73
2022-12-15T08:49:02.632Z,13.70
2022-12-15T08:51:32.015Z,14.10
2022-12-15T08:54:00.421Z,13.77
2022-12-15T08:56:28.377Z,13.63
2022-12-15T08:58:58.005Z,13.70
2022-12-15T09:01:27.111Z,13.67
2022-12-15T09:03:55.768Z,13.60
2022-12-15T09:06:28.823Z,14.30
2022-12-15T09:09:04.303Z,14.07
2022-12-15T09:11:31.724Z,13.83
2022-12-15T09:13:58.811Z,13.77
2022-12-15T09:16:26.791Z,13.83
2022-12-15T09:18:57.220Z,13.70
2022-12-15T09:21:26.737Z,13.63
2022-12-15T09:23:58.629Z,13.43
2022-12-15T09:26:26.098Z,13.20
2022-12-15T09:28:55.025Z,12.60
2022-12-15T09:31:25.059Z,12.80
2022-12-15T09:33:53.496Z,13.90
2022-12-15T09:36:22.396Z,13.53
2022-12-15T09:38:49.471Z,13.30
2022-12-15T09:41:23.662Z,13.10
2022-12-15T09:43:53.503Z,13.33
2022-12-15T09:46:23.362Z,13.87
2022-12-15T09:48:51.718Z,13.50
2022-12-15T09:51:19.465Z,13.13
2022-12-15T09:53:55.881Z,12.93
2022-12-15T09:57:05.228Z,12.93
2022-12-15T10:00:11.585Z,13.07
2022-12-15T10:03:12.318Z,12.70
2022-12-15T10:08:54.920Z,11.30
2022-12-15T10:11:48.574Z,11.30
2022-12-15T10:14:44.114Z,5.57
2022-12-15T10:17:28.885Z,0.10
2022-12-15T10:20:15.490Z,6.40
2022-12-15T10:22:42.454Z,0.30
2022-12-15T10:25:29.777Z,0.30
2022-12-15T10:28:24.738Z,0.43
2022-12-15T10:30:59.827Z,0.73
2022-12-15T10:33:34.660Z,0.30
2022-12-15T10:36:02.077Z,3.60
2022-12-15T10:38:38.008Z,0.60
2022-12-15T10:41:07.868Z,16.27
2022-12-15T10:43:40.534Z,0.10
2022-12-15T10:46:23.908Z,7.37
2022-12-15T10:48:54.202Z,0.37
2022-12-15T10:51:38.732Z,3.10
2022-12-15T10:54:09.899Z,1.43
2022-12-15T10:56:52.169Z,0.10
2022-12-15T10:59:38.661Z,0.87
2022-12-15T11:02:23.998Z,0.10
2022-12-15T11:05:17.848Z,12.60
2022-12-15T11:07:47.585Z,12.80
2022-12-15T11:10:20.501Z,12.43
2022-12-15T11:13:15.577Z,12.83
2022-12-15T11:15:56.530Z,12.70
2022-12-15T11:18:29.342Z,12.97
2022-12-15T11:21:21.675Z,13.20
2022-12-15T11:24:18.274Z,12.23
2022-12-15T11:27:21.071Z,11.50
2022-12-15T11:29:50.966Z,11.83
2022-12-15T11:32:23.147Z,12.10
2022-12-15T11:34:50.283Z,11.63
2022-12-15T11:37:41.581Z,13.57
2022-12-15T11:40:40.146Z,13.50
2022-12-15T11:43:41.224Z,13.70
2022-12-15T11:46:30.096Z,13.60
2022-12-15T11:49:30.200Z,13.03
2022-12-15T11:52:11.591Z,13.00
2022-12-15T11:54:51.418Z,12.53
2022-12-15T11:58:11.155Z,12.73
2022-12-15T12:00:43.801Z,12.90
2022-12-15T12:03:16.123Z,12.83
2022-12-15T12:06:26.648Z,13.20
2022-12-15T12:09:03.201Z,13.13
2022-12-15T12:11:44.482Z,13.07
2022-12-15T12:14:50.608Z,12.80
2022-12-15T12:17:39.348Z,13.07
2022-12-15T12:20:18.640Z,13.17
2022-12-15T12:22:58.892Z,12.30
2022-12-15T12:25:33.168Z,14.00
2022-12-15T12:28:04.977Z,13.23
2022-12-15T12:30:50.393Z,13.20
2022-12-15T12:34:00.225Z,13.20
2022-12-15T12:36:27.299Z,13.43
2022-12-15T12:38:56.885Z,13.47
2022-12-15T12:41:45.038Z,13.13
2022-12-15T12:44:36.729Z,12.87
2022-12-15T12:47:17.426Z,13.53
2022-12-15T12:52:38.175Z,12.60
2022-12-15T12:55:27.694Z,12.97
2022-12-15T12:57:55.304Z,13.70
2022-12-15T13:00:29.863Z,13.30
2022-12-15T13:02:59.511Z,13.33
2022-12-15T13:05:33.269Z,12.77
2022-12-15T13:08:06.376Z,12.87
2022-12-15T13:10:42.579Z,12.90
2022-12-15T13:13:18.502Z,12.80
2022-12-15T13:15:50.996Z,13.47
2022-12-15T13:18:21.801Z,13.30
2022-12-15T13:20:53.618Z,13.70
2022-12-15T13:23:23.141Z,13.53
2022-12-15T13:25:55.851Z,13.73
2022-12-15T13:28:44.341Z,13.67
2022-12-15T13:31:19.169Z,13.00
2022-12-15T13:33:49.405Z,12.93
2022-12-15T13:36:38.418Z,12.90
2022-12-15T13:39:17.205Z,12.90
2022-12-15T13:44:56.839Z,12.53
2022-12-15T13:47:32.831Z,12.93
2022-12-15T13:50:15.708Z,13.10
2022-12-15T13:56:11.686Z,12.90
2022-12-15T13:58:48.963Z,12.73
2022-12-15T14:01:32.280Z,12.60
2022-12-15T14:04:05.034Z,13.20
2022-12-15T14:06:44.152Z,13.03
2022-12-15T14:09:14.422Z,12.80
2022-12-15T14:11:58.608Z,13.60
2022-12-15T14:14:32.583Z,12.70
2022-12-15T14:17:08.511Z,13.07
2022-12-15T14:19:51.145Z,13.07
2022-12-15T14:25:22.360Z,12.77
2022-12-15T14:27:50.696Z,12.33
2022-12-15T14:30:25.695Z,12.90
2022-12-15T14:33:14.514Z,13.10
2022-12-15T14:35:49.605Z,12.53
2022-12-15T14:38:27.822Z,13.20
2022-12-15T14:40:57.139Z,12.90
2022-12-15T14:43:29.844Z,13.53
2022-12-15T14:46:16.283Z,13.37
2022-12-15T14:49:04.827Z,13.20
2022-12-15T14:51:43.024Z,13.47
2022-12-15T14:54:36.873Z,13.20
2022-12-15T14:57:14.965Z,13.67
2022-12-15T14:59:46.046Z,13.50
2022-12-15T15:02:22.959Z,12.87
2022-12-15T15:03:05.904Z,13.10
2022-12-15T15:03:09.924Z,11.53
2022-12-15T15:03:10.317Z,13.43
2022-12-15T15:04:59.921Z,13.80
2022-12-15T15:07:28.992Z,13.70
2022-12-15T15:09:56.122Z,13.87
2022-12-15T15:12:27.002Z,13.03
2022-12-15T15:14:58.484Z,12.67
2022-12-15T15:17:36.274Z,12.77
2022-12-15T15:20:07.750Z,12.67
2022-12-15T15:22:43.722Z,13.00
2022-12-15T15:25:25.881Z,12.67
2022-12-15T15:27:53.194Z,13.50
2022-12-15T15:30:22.481Z,13.50
2022-12-15T15:32:58.420Z,13.17
2022-12-15T15:35:34.466Z,12.77
2022-12-15T15:38:14.663Z,13.30
2022-12-15T15:40:41.647Z,12.80
2022-12-15T15:43:12.496Z,12.63
2022-12-15T15:45:41.662Z,12.80
2022-12-15T15:48:19.364Z,12.80
2022-12-15T15:50:47.356Z,12.77
2022-12-15T15:53:20.974Z,12.37
2022-12-15T15:55:50.565Z,13.00
2022-12-15T15:58:17.772Z,12.57
2022-12-15T16:00:44.917Z,12.50
2022-12-15T16:03:12.198Z,12.40
2022-12-15T16:05:40.260Z,12.37
2022-12-15T16:08:07.405Z,12.37
2022-12-15T16:10:34.715Z,12.30
2022-12-15T16:13:02.354Z,12.10
2022-12-15T16:15:34.588Z,13.07
2022-12-15T16:18:01.507Z,13.47
2022-12-15T16:20:29.855Z,13.30
2022-12-15T16:23:15.959Z,13.07
2022-12-15T16:25:50.655Z,13.17
2022-12-15T16:28:20.736Z,13.40
2022-12-15T16:30:48.293Z,14.53
2022-12-15T16:33:15.352Z,13.37
2022-12-15T16:35:43.485Z,13.67
2022-12-15T16:38:18.593Z,13.83
2022-12-15T16:40:45.806Z,13.83
2022-12-15T16:43:16.733Z,14.00
2022-12-15T16:45:48.597Z,14.00
2022-12-15T16:48:16.347Z,19.37
2022-12-15T16:50:55.124Z,13.03
2022-12-15T16:53:27.500Z,13.73
2022-12-15T16:55:56.206Z,13.30
2022-12-15T16:58:25.235Z,13.70
2022-12-15T17:00:53.830Z,13.87
2022-12-15T17:03:28.280Z,13.90
2022-12-15T17:06:01.722Z,12.73
2022-12-15T17:08:34.632Z,13.70
2022-12-15T17:11:02.017Z,13.23
2022-12-15T17:13:43.711Z,14.03
2022-12-15T17:16:15.859Z,13.47
2022-12-15T17:18:44.586Z,13.33
2022-12-15T17:21:30.217Z,13.33
2022-12-15T17:24:00.671Z,12.73
2022-12-15T17:26:30.774Z,12.90
2022-12-15T17:29:01.310Z,12.50
2022-12-15T17:31:34.629Z,12.40
2022-12-15T17:34:26.348Z,13.00
2022-12-15T17:36:53.745Z,12.70
2022-12-15T17:39:22.532Z,13.00
2022-12-15T17:42:04.588Z,12.97
2022-12-15T17:44:37.262Z,13.70
2022-12-15T17:47:06.777Z,13.80
2022-12-15T17:49:37.784Z,14.03
2022-12-15T17:52:24.419Z,12.75
2022-12-15T17:54:52.008Z,12.53
2022-12-15T17:57:18.940Z,12.63
2022-12-15T17:59:46.018Z,12.40
2022-12-15T18:02:14.329Z,11.83
2022-12-15T18:04:42.357Z,14.90
2022-12-15T18:07:20.854Z,13.47
2022-12-15T18:09:48.623Z,13.00
2022-12-15T18:12:24.817Z,12.00
2022-12-15T18:14:52.452Z,12.53
2022-12-15T18:17:19.979Z,14.97
2022-12-15T18:19:47.190Z,12.03
2022-12-15T18:22:18.546Z,11.87
2022-12-15T18:24:46.290Z,11.97
2022-12-15T18:27:25.392Z,11.60
2022-12-15T18:29:52.766Z,12.20
2022-12-15T18:32:21.466Z,12.13
2022-12-15T18:34:48.589Z,12.00
2022-12-15T18:37:17.486Z,12.10
2022-12-15T18:39:45.167Z,11.57
2022-12-15T18:42:20.482Z,12.10
2022-12-15T18:44:50.475Z,12.77
2022-12-15T18:47:23.288Z,12.10
2022-12-15T18:49:50.537Z,12.80
2022-12-15T18:52:18.541Z,12.90
2022-12-15T18:54:47.446Z,12.90
2022-12-15T18:57:31.186Z,13.10
2022-12-15T19:00:01.808Z,12.43
2022-12-15T19:02:29.081Z,12.43
2022-12-15T19:04:56.150Z,14.47
2022-12-15T19:07:23.102Z,12.50
2022-12-15T19:09:50.369Z,12.77
2022-12-15T19:12:17.823Z,12.20
2022-12-15T19:14:47.232Z,12.73
2022-12-15T19:17:35.757Z,12.47
2022-12-15T19:20:23.233Z,12.40
2022-12-15T19:22:50.523Z,13.33
2022-12-15T19:25:27.268Z,12.70
2022-12-15T19:27:59.079Z,12.70
2022-12-15T19:30:37.049Z,12.43
2022-12-15T19:33:08.498Z,12.60
2022-12-15T19:35:36.436Z,12.70
2022-12-15T19:38:04.267Z,12.93
2022-12-15T19:40:34.533Z,12.77
2022-12-15T19:43:04.311Z,13.20
2022-12-15T19:45:32.365Z,13.20
2022-12-15T19:47:59.706Z,12.73
2022-12-15T19:50:30.541Z,13.07
2022-12-15T19:53:00.631Z,13.00
2022-12-15T19:55:34.350Z,13.20
2022-12-15T19:58:27.902Z,13.33
2022-12-15T20:01:07.652Z,13.17
2022-12-15T20:03:35.817Z,13.20
2022-12-15T20:06:04.458Z,13.70
2022-12-15T20:08:36.933Z,13.20
2022-12-15T20:11:04.284Z,13.30
2022-12-15T20:13:31.558Z,12.53
2022-12-15T20:15:58.754Z,12.27
2022-12-15T20:18:25.612Z,12.57
2022-12-15T20:20:52.867Z,13.20
2022-12-15T20:23:26.520Z,13.00
2022-12-15T20:25:54.448Z,12.80
2022-12-15T20:28:29.987Z,13.13
2022-12-15T20:30:57.952Z,13.10
2022-12-15T20:33:25.288Z,13.10
2022-12-15T20:35:52.694Z,13.00
2022-12-15T20:38:32.792Z,13.37
2022-12-15T20:41:01.602Z,12.97
2022-12-15T20:43:34.769Z,12.80
2022-12-15T20:46:15.756Z,12.90
2022-12-15T20:48:44.555Z,12.77
2022-12-15T20:51:27.560Z,13.20
2022-12-15T20:53:56.198Z,12.80
2022-12-15T20:56:24.050Z,12.93
2022-12-15T20:58:55.523Z,13.20
2022-12-15T21:01:27.478Z,12.93
2022-12-15T21:03:57.018Z,12.40
2022-12-15T21:06:25.318Z,12.70
2022-12-15T21:08:52.702Z,12.80
2022-12-15T21:11:32.848Z,12.57
2022-12-15T21:14:04.216Z,12.87
2022-12-15T21:16:32.840Z,12.77
2022-12-15T21:19:19.624Z,13.30
2022-12-15T21:21:51.705Z,12.63
2022-12-15T21:24:24.662Z,13.10
2022-12-15T21:26:52.381Z,12.73
2022-12-15T21:29:24.324Z,12.73
2022-12-15T21:31:51.281Z,13.10
2022-12-15T21:34:18.082Z,12.70
2022-12-15T21:36:50.049Z,12.07
2022-12-15T21:39:29.730Z,12.93
2022-12-15T21:42:00.233Z,12.40
2022-12-15T21:44:27.091Z,13.23
2022-12-15T21:46:54.746Z,12.83
2022-12-15T21:49:22.114Z,13.20
2022-12-15T21:51:58.383Z,13.13
2022-12-15T21:54:36.137Z,12.73
2022-12-15T21:57:03.040Z,13.00
2022-12-15T21:59:31.820Z,13.03
2022-12-15T22:02:13.673Z,13.13
2022-12-15T22:04:41.457Z,14.00
2022-12-15T22:07:14.427Z,13.60
2022-12-15T22:09:41.273Z,12.43
2022-12-15T22:12:19.467Z,12.37
2022-12-15T22:14:46.537Z,12.63
2022-12-15T22:17:17.887Z,13.00
2022-12-15T22:19:45.108Z,13.10
2022-12-15T22:22:12.739Z,12.60
2022-12-15T22:24:40.423Z,12.67
2022-12-15T22:27:21.452Z,12.70
2022-12-15T22:29:51.384Z,12.67
2022-12-15T22:32:18.286Z,12.87
2022-12-15T22:34:45.271Z,12.60
2022-12-15T22:37:12.127Z,12.43
2022-12-15T22:39:38.905Z,12.23
2022-12-15T22:42:06.038Z,12.13
2022-12-15T22:44:37.275Z,12.13
2022-12-15T22:47:04.792Z,12.27
2022-12-15T22:49:37.656Z,12.80
2022-12-15T22:52:16.117Z,12.60
2022-12-15T22:54:45.685Z,12.23
2022-12-15T22:57:24.888Z,11.77
2022-12-15T23:00:00.788Z,11.60
2022-12-15T23:02:38.217Z,13.17
2022-12-15T23:05:05.985Z,12.27
2022-12-15T23:07:34.104Z,12.73
2022-12-15T23:10:19.531Z,12.73
2022-12-15T23:12:46.395Z,13.30
2022-12-15T23:15:31.747Z,12.70
2022-12-15T23:17:58.575Z,12.57
2022-12-15T23:20:25.421Z,12.50
2022-12-15T23:22:52.400Z,26.40
2022-12-15T23:25:21.553Z,13.03
2022-12-15T23:27:48.613Z,12.57
2022-12-15T23:30:16.014Z,12.93
2022-12-15T23:32:43.377Z,12.87
2022-12-15T23:35:10.276Z,13.13
2022-12-15T23:37:37.138Z,13.00
2022-12-15T23:40:04.301Z,12.77
2022-12-15T23:42:31.179Z,12.80
2022-12-15T23:44:57.995Z,13.43
2022-12-15T23:47:24.868Z,13.33
2022-12-15T23:49:51.736Z,13.20
2022-12-15T23:52:19.764Z,12.97
2022-12-15T23:54:46.535Z,12.90
2022-12-15T23:57:13.581Z,14.57
2022-12-15T23:59:40.317Z,12.90
